createdAt,value
2018-09-18T00:01:19.139Z,13.90
2018-09-18T00:03:48.382Z,13.90
2018-09-18T00:06:17.505Z,13.80
2018-09-18T00:08:46.754Z,13.70
2018-09-18T00:11:15.869Z,13.80
2018-09-18T00:13:44.903Z,13.80
2018-09-18T00:16:13.912Z,13.70
2018-09-18T00:18:42.980Z,13.70
2018-09-18T00:21:11.999Z,13.70
2018-09-18T00:23:41.007Z,13.70
2018-09-18T00:26:10.050Z,13.70
2018-09-18T00:28:39.094Z,13.70
2018-09-18T00:31:08.387Z,13.60
2018-09-18T00:33:37.406Z,13.50
2018-09-18T00:36:06.441Z,13.50
2018-09-18T00:38:35.494Z,13.50
2018-09-18T00:41:04.541Z,13.50
2018-09-18T00:43:33.582Z,13.50
2018-09-18T00:46:02.676Z,13.50
2018-09-18T00:48:31.723Z,13.40
2018-09-18T00:51:00.857Z,13.40
2018-09-18T00:53:29.860Z,13.40
2018-09-18T00:55:58.985Z,13.40
2018-09-18T00:58:28.166Z,13.40
2018-09-18T01:00:57.236Z,13.40
2018-09-18T01:03:26.405Z,13.40
2018-09-18T01:05:55.484Z,13.30
2018-09-18T01:08:24.595Z,13.30
2018-09-18T01:10:53.625Z,13.30
2018-09-18T01:13:22.704Z,13.30
2018-09-18T01:15:51.757Z,13.30
2018-09-18T01:18:20.817Z,13.20
2018-09-18T01:20:49.890Z,13.20
2018-09-18T01:23:19.065Z,13.30
2018-09-18T01:25:48.082Z,13.20
2018-09-18T01:28:17.145Z,13.20
2018-09-18T01:30:46.265Z,13.20
2018-09-18T01:33:15.318Z,13.20
2018-09-18T01:35:44.383Z,13.20
2018-09-18T01:38:13.390Z,13.20
2018-09-18T01:40:42.420Z,13.10
2018-09-18T01:43:12.093Z,13.10
2018-09-18T01:45:41.151Z,13.10
2018-09-18T01:48:10.268Z,13.10
2018-09-18T01:50:39.313Z,13.20
2018-09-18T01:53:08.311Z,13.10
2018-09-18T01:55:37.413Z,13.20
2018-09-18T01:58:06.495Z,13.10
2018-09-18T02:00:35.982Z,13.10
2018-09-18T02:03:05.053Z,13.10
2018-09-18T02:05:34.127Z,13.10
2018-09-18T02:08:03.225Z,13.10
2018-09-18T02:10:32.280Z,13.10
2018-09-18T02:13:01.315Z,13.10
2018-09-18T02:15:30.342Z,13.00
2018-09-18T02:17:59.356Z,12.90
2018-09-18T02:20:28.383Z,12.90
2018-09-18T02:22:57.414Z,12.90
2018-09-18T02:25:26.444Z,12.90
2018-09-18T02:27:55.573Z,12.90
2018-09-18T02:30:24.636Z,12.90
2018-09-18T02:32:53.696Z,12.90
2018-09-18T02:35:22.784Z,12.90
2018-09-18T02:37:51.883Z,12.90
2018-09-18T02:40:20.935Z,12.90
2018-09-18T02:42:49.986Z,12.90
2018-09-18T02:45:19.022Z,12.90
2018-09-18T02:47:48.084Z,12.90
2018-09-18T02:50:17.142Z,12.80
2018-09-18T02:52:46.293Z,12.80
2018-09-18T02:55:15.429Z,12.80
2018-09-18T02:57:44.528Z,12.80
2018-09-18T03:00:13.578Z,12.80
2018-09-18T03:02:42.671Z,12.80
2018-09-18T03:05:11.748Z,12.90
2018-09-18T03:07:41.906Z,12.90
2018-09-18T03:10:11.024Z,12.80
2018-09-18T03:12:40.050Z,12.80
2018-09-18T03:15:09.061Z,12.80
2018-09-18T03:17:38.106Z,12.90
2018-09-18T03:20:07.162Z,12.80
2018-09-18T03:22:36.257Z,12.80
2018-09-18T03:25:05.481Z,12.80
2018-09-18T03:27:34.546Z,12.90
2018-09-18T03:30:03.922Z,12.90
2018-09-18T03:32:33.549Z,12.80
2018-09-18T03:35:02.587Z,12.80
2018-09-18T03:37:31.690Z,12.90
2018-09-18T03:40:00.712Z,12.80
2018-09-18T03:42:29.760Z,12.90
2018-09-18T03:44:58.789Z,12.90
2018-09-18T03:47:27.881Z,12.80
2018-09-18T03:49:56.909Z,12.90
2018-09-18T03:52:26.021Z,12.90
2018-09-18T03:54:55.187Z,12.90
2018-09-18T03:57:24.374Z,12.90
2018-09-18T03:59:53.471Z,12.90
2018-09-18T04:02:22.611Z,12.90
2018-09-18T04:04:51.629Z,12.90
2018-09-18T04:07:20.728Z,12.80
2018-09-18T04:09:49.732Z,12.90
2018-09-18T04:12:18.791Z,12.90
2018-09-18T04:14:47.839Z,12.90
2018-09-18T04:17:16.944Z,12.90
2018-09-18T04:19:46.011Z,12.90
2018-09-18T04:22:15.078Z,12.90
2018-09-18T04:24:44.137Z,12.80
2018-09-18T04:27:13.195Z,12.80
2018-09-18T04:29:42.234Z,12.80
2018-09-18T04:32:11.297Z,12.80
2018-09-18T04:34:40.363Z,12.80
2018-09-18T04:37:09.408Z,12.70
2018-09-18T04:39:38.658Z,12.70
2018-09-18T04:42:07.740Z,12.70
2018-09-18T04:44:36.761Z,12.60
2018-09-18T04:47:05.992Z,12.60
2018-09-18T04:49:35.460Z,12.60
2018-09-18T04:52:04.893Z,12.60
2018-09-18T04:54:33.993Z,12.60
2018-09-18T04:57:03.161Z,12.60
2018-09-18T04:59:32.546Z,12.60
2018-09-18T05:02:01.707Z,12.60
2018-09-18T05:04:30.826Z,12.60
2018-09-18T05:07:00.146Z,12.50
2018-09-18T05:09:29.218Z,12.60
2018-09-18T05:11:58.246Z,12.60
2018-09-18T05:14:27.265Z,12.50
2018-09-18T05:16:56.325Z,12.50
2018-09-18T05:19:25.444Z,12.50
2018-09-18T05:21:54.609Z,12.60
2018-09-18T05:24:23.667Z,12.60
2018-09-18T05:26:52.702Z,12.60
2018-09-18T05:29:21.738Z,12.60
2018-09-18T05:31:50.782Z,12.70
2018-09-18T05:34:19.954Z,12.70
2018-09-18T05:36:48.996Z,12.70
2018-09-18T05:39:18.068Z,12.70
2018-09-18T05:41:47.177Z,12.70
2018-09-18T05:44:16.250Z,12.80
2018-09-18T05:46:45.271Z,12.80
2018-09-18T05:49:14.357Z,12.80
2018-09-18T05:51:43.479Z,12.80
2018-09-18T05:54:12.594Z,12.80
2018-09-18T05:56:41.946Z,12.90
2018-09-18T05:59:11.086Z,12.90
2018-09-18T06:01:40.220Z,12.90
2018-09-18T06:04:09.322Z,13.00
2018-09-18T06:06:38.416Z,13.00
2018-09-18T06:09:10.030Z,13.10
2018-09-18T06:11:39.125Z,13.10
2018-09-18T06:14:08.232Z,13.20
2018-09-18T06:16:37.274Z,13.20
2018-09-18T06:19:08.293Z,13.30
2018-09-18T06:21:37.503Z,13.40
2018-09-18T06:24:06.595Z,13.50
2018-09-18T06:26:35.878Z,13.50
2018-09-18T06:29:05.019Z,13.50
2018-09-18T06:31:34.056Z,13.60
2018-09-18T06:34:03.133Z,13.70
2018-09-18T06:36:32.220Z,13.80
2018-09-18T06:39:01.340Z,13.90
2018-09-18T06:41:30.390Z,13.90
2018-09-18T06:43:59.482Z,14.00
2018-09-18T06:46:28.556Z,14.10
2018-09-18T06:48:57.689Z,14.20
2018-09-18T06:51:28.983Z,14.20
2018-09-18T06:53:58.133Z,14.30
2018-09-18T06:56:28.080Z,14.40
2018-09-18T06:58:57.134Z,14.50
2018-09-18T07:01:26.499Z,14.60
2018-09-18T07:03:56.084Z,14.80
2018-09-18T07:06:26.266Z,15.00
2018-09-18T07:08:55.924Z,15.10
2018-09-18T07:11:25.553Z,15.20
2018-09-18T07:13:54.820Z,15.30
2018-09-18T07:16:24.695Z,15.40
2018-09-18T07:18:54.125Z,15.50
2018-09-18T07:21:23.362Z,15.60
2018-09-18T07:23:53.301Z,15.70
2018-09-18T07:26:23.414Z,15.80
2018-09-18T07:28:52.600Z,16.00
2018-09-18T07:31:21.900Z,16.10
2018-09-18T07:33:52.290Z,16.20
2018-09-18T07:36:21.412Z,16.30
2018-09-18T07:38:50.620Z,16.40
2018-09-18T07:41:19.791Z,16.50
2018-09-18T07:43:49.121Z,16.60
2018-09-18T07:46:20.157Z,16.70
2018-09-18T07:48:49.656Z,16.70
2018-09-18T07:54:01.472Z,17.00
2018-09-18T07:56:32.701Z,17.00
2018-09-18T07:59:04.076Z,17.20
2018-09-18T08:01:34.443Z,17.30
2018-09-18T08:04:04.166Z,17.40
2018-09-18T08:06:33.995Z,17.60
2018-09-18T08:09:04.079Z,17.70
2018-09-18T08:11:34.889Z,17.90
2018-09-18T08:14:04.333Z,18.10
2018-09-18T08:16:34.580Z,18.20
2018-09-18T08:19:04.704Z,18.30
2018-09-18T08:21:34.338Z,18.40
2018-09-18T08:24:04.275Z,18.60
2018-09-18T08:26:33.946Z,18.70
2018-09-18T08:29:12.253Z,18.80
2018-09-18T08:31:43.449Z,18.90
2018-09-18T08:34:19.395Z,19.00
2018-09-18T08:36:48.792Z,19.20
2018-09-18T08:39:18.327Z,19.30
2018-09-18T08:42:16.352Z,19.40
2018-09-18T08:44:54.740Z,19.60
2018-09-18T08:47:23.902Z,19.70
2018-09-18T08:49:54.444Z,19.80
2018-09-18T08:52:25.592Z,19.90
2018-09-18T08:54:55.036Z,19.90
2018-09-18T08:57:24.637Z,19.90
2018-09-18T08:59:54.147Z,20.10
2018-09-18T09:05:10.190Z,20.30
2018-09-18T09:07:42.674Z,20.50
2018-09-18T09:10:11.871Z,20.60
2018-09-18T09:12:41.091Z,20.70
2018-09-18T09:15:10.662Z,20.90
2018-09-18T09:17:39.709Z,21.10
2018-09-18T09:20:08.976Z,21.20
2018-09-18T09:22:38.713Z,21.30
2018-09-18T09:25:07.773Z,21.40
2018-09-18T09:27:37.033Z,21.60
2018-09-18T09:30:06.157Z,21.70
2018-09-18T09:32:35.206Z,21.80
2018-09-18T09:35:04.344Z,22.00
2018-09-18T09:37:34.009Z,22.10
2018-09-18T09:40:43.698Z,22.20
2018-09-18T09:43:12.790Z,22.30
2018-09-18T09:46:02.832Z,22.40
2018-09-18T09:49:00.063Z,22.60
2018-09-18T09:51:45.221Z,22.70
2018-09-18T09:54:45.781Z,22.80
2018-09-18T09:57:15.836Z,23.00
2018-09-18T09:59:46.919Z,23.10
2018-09-18T10:02:17.719Z,23.20
2018-09-18T10:04:47.468Z,23.30
2018-09-18T10:07:16.822Z,23.40
2018-09-18T10:09:46.036Z,23.60
2018-09-18T10:12:19.930Z,23.60
2018-09-18T10:14:49.577Z,23.70
2018-09-18T10:17:19.661Z,23.80
2018-09-18T10:19:55.282Z,24.00
2018-09-18T10:22:24.690Z,24.10
2018-09-18T10:24:53.955Z,24.20
2018-09-18T10:27:22.956Z,24.30
2018-09-18T10:29:52.133Z,24.40
2018-09-18T10:32:21.183Z,24.50
2018-09-18T10:34:51.717Z,24.60
2018-09-18T10:37:20.972Z,24.60
2018-09-18T10:39:50.092Z,24.70
2018-09-18T10:42:19.218Z,24.80
2018-09-18T10:44:48.322Z,24.80
2018-09-18T10:47:18.500Z,25.00
2018-09-18T10:49:47.569Z,25.00
2018-09-18T10:52:16.722Z,25.10
2018-09-18T10:54:45.753Z,25.20
2018-09-18T10:57:14.924Z,25.30
2018-09-18T10:59:44.205Z,25.40
2018-09-18T11:02:13.795Z,25.40
2018-09-18T11:04:42.700Z,25.50
2018-09-18T11:07:11.916Z,25.60
2018-09-18T11:09:40.976Z,25.70
2018-09-18T11:12:10.007Z,25.80
2018-09-18T11:14:39.835Z,25.90
2018-09-18T11:17:08.947Z,25.90
2018-09-18T11:19:38.027Z,26.10
2018-09-18T11:22:07.255Z,26.20
2018-09-18T11:24:36.296Z,26.20
2018-09-18T11:27:05.392Z,26.20
2018-09-18T11:29:34.483Z,26.40
2018-09-18T11:32:04.337Z,26.40
2018-09-18T11:34:33.472Z,26.40
2018-09-18T11:37:02.608Z,26.50
2018-09-18T11:39:31.683Z,26.60
2018-09-18T11:42:00.827Z,26.60
2018-09-18T11:44:30.173Z,26.70
2018-09-18T11:46:59.353Z,26.70
2018-09-18T11:49:28.417Z,26.80
2018-09-18T11:51:57.466Z,27.00
2018-09-18T11:54:26.769Z,27.00
2018-09-18T11:56:56.878Z,27.10
2018-09-18T11:59:26.097Z,27.20
2018-09-18T12:01:55.193Z,27.20
2018-09-18T12:04:24.410Z,27.30
2018-09-18T12:06:53.513Z,27.40
2018-09-18T12:09:22.630Z,27.40
2018-09-18T12:11:51.823Z,27.60
2018-09-18T12:14:20.913Z,27.60
2018-09-18T12:16:49.966Z,27.60
2018-09-18T12:19:19.134Z,27.70
2018-09-18T12:21:48.191Z,27.80
2018-09-18T12:24:17.502Z,27.80
2018-09-18T12:26:46.544Z,27.80
2018-09-18T12:29:15.695Z,27.90
2018-09-18T12:31:44.827Z,28.00
2018-09-18T12:34:14.919Z,28.00
2018-09-18T12:36:44.313Z,28.10
2018-09-18T12:39:13.383Z,28.10
2018-09-18T12:41:42.460Z,28.20
2018-09-18T12:44:11.741Z,28.30
2018-09-18T12:46:41.183Z,28.40
2018-09-18T12:49:10.458Z,28.50
2018-09-18T12:51:39.523Z,28.50
2018-09-18T12:54:08.750Z,28.50
2018-09-18T12:56:37.777Z,28.70
2018-09-18T12:59:07.353Z,28.70
2018-09-18T13:01:36.602Z,28.70
2018-09-18T13:04:05.826Z,28.70
2018-09-18T13:06:34.956Z,28.70
2018-09-18T13:09:04.794Z,28.70
2018-09-18T13:11:34.153Z,28.70
2018-09-18T13:14:03.352Z,28.70
2018-09-18T13:16:32.425Z,28.70
2018-09-18T13:19:01.824Z,28.80
2018-09-18T13:21:31.210Z,28.80
2018-09-18T13:24:00.529Z,28.80
2018-09-18T13:26:29.819Z,28.80
2018-09-18T13:28:59.261Z,28.90
2018-09-18T13:31:29.355Z,28.90
2018-09-18T13:33:58.695Z,28.90
2018-09-18T13:36:28.151Z,29.00
2018-09-18T13:38:57.462Z,29.00
2018-09-18T13:41:27.316Z,29.00
2018-09-18T13:43:56.625Z,29.10
2018-09-18T13:46:25.909Z,29.10
2018-09-18T13:48:55.211Z,29.20
2018-09-18T13:51:24.416Z,29.20
2018-09-18T13:53:53.825Z,29.20
2018-09-18T13:56:23.033Z,29.20
2018-09-18T13:58:52.042Z,29.20
2018-09-18T14:01:21.200Z,29.20
2018-09-18T14:03:50.318Z,29.20
2018-09-18T14:06:19.479Z,29.30
2018-09-18T14:08:48.565Z,29.30
2018-09-18T14:11:17.700Z,29.30
2018-09-18T14:13:46.874Z,29.30
2018-09-18T14:16:15.974Z,29.40
2018-09-18T14:18:45.075Z,29.40
2018-09-18T14:21:14.209Z,29.40
2018-09-18T14:23:43.346Z,29.40
2018-09-18T14:26:12.604Z,29.40
2018-09-18T14:28:41.814Z,29.40
2018-09-18T14:31:11.121Z,29.40
2018-09-18T14:33:40.247Z,29.40
2018-09-18T14:36:09.407Z,29.50
2018-09-18T14:38:38.469Z,29.50
2018-09-18T14:41:07.739Z,29.60
2018-09-18T14:43:37.146Z,29.60
2018-09-18T14:46:06.521Z,29.70
2018-09-18T14:48:36.358Z,29.60
2018-09-18T14:51:05.591Z,29.70
2018-09-18T14:53:34.736Z,29.70
2018-09-18T14:56:03.815Z,29.70
2018-09-18T14:58:32.922Z,29.70
2018-09-18T15:01:02.971Z,29.70
2018-09-18T15:03:32.150Z,29.70
2018-09-18T15:06:01.197Z,29.70
2018-09-18T15:08:31.162Z,29.70
2018-09-18T15:11:00.334Z,29.70
2018-09-18T15:13:29.440Z,29.70
2018-09-18T15:16:00.347Z,29.70
2018-09-18T15:18:29.459Z,29.70
2018-09-18T15:20:58.617Z,29.70
2018-09-18T15:23:27.683Z,29.70
2018-09-18T15:25:56.774Z,29.60
2018-09-18T15:28:25.966Z,29.60
2018-09-18T15:30:55.019Z,29.60
2018-09-18T15:33:24.181Z,29.60
2018-09-18T15:35:53.291Z,29.60
2018-09-18T15:38:22.359Z,29.50
2018-09-18T15:40:51.511Z,29.50
2018-09-18T15:43:20.682Z,29.50
2018-09-18T15:45:49.911Z,29.40
2018-09-18T15:48:19.126Z,29.30
2018-09-18T15:50:48.551Z,29.30
2018-09-18T15:53:17.849Z,29.20
2018-09-18T15:55:47.009Z,29.30
2018-09-18T15:58:16.737Z,29.30
2018-09-18T16:00:45.861Z,29.30
2018-09-18T16:03:15.041Z,29.20
2018-09-18T16:05:44.090Z,29.10
2018-09-18T16:08:13.265Z,29.10
2018-09-18T16:10:42.389Z,29.00
2018-09-18T16:13:11.456Z,28.90
2018-09-18T16:15:40.662Z,28.90
2018-09-18T16:18:09.823Z,28.80
2018-09-18T16:20:38.866Z,28.80
2018-09-18T16:23:08.046Z,28.70
2018-09-18T16:25:37.119Z,28.70
2018-09-18T16:28:13.047Z,28.60
2018-09-18T16:30:42.187Z,28.60
2018-09-18T16:33:11.961Z,28.40
2018-09-18T16:35:41.035Z,28.40
2018-09-18T16:38:10.261Z,28.30
2018-09-18T16:40:39.389Z,28.30
2018-09-18T16:43:08.416Z,28.40
2018-09-18T16:45:37.482Z,28.30
2018-09-18T16:48:06.575Z,28.30
2018-09-18T16:50:35.808Z,28.20
2018-09-18T16:53:04.902Z,28.20
2018-09-18T16:55:34.005Z,28.10
2018-09-18T16:58:03.360Z,28.10
2018-09-18T17:00:33.457Z,28.00
2018-09-18T17:03:02.737Z,27.90
2018-09-18T17:05:32.441Z,27.80
2018-09-18T17:08:01.633Z,27.70
2018-09-18T17:10:34.661Z,27.60
2018-09-18T17:13:04.140Z,27.60
2018-09-18T17:15:33.473Z,27.50
2018-09-18T17:18:02.701Z,27.50
2018-09-18T17:20:32.444Z,27.40
2018-09-18T17:23:59.825Z,27.20
2018-09-18T17:26:33.277Z,26.80
2018-09-18T17:29:04.061Z,26.30
2018-09-18T17:31:33.891Z,25.90
2018-09-18T17:34:36.660Z,25.60
2018-09-18T17:37:06.157Z,25.30
2018-09-18T17:39:37.385Z,25.10
2018-09-18T17:42:08.887Z,24.80
2018-09-18T17:44:38.986Z,24.40
2018-09-18T17:47:08.245Z,24.10
2018-09-18T17:49:39.126Z,23.80
2018-09-18T17:52:08.446Z,23.60
2018-09-18T17:54:39.492Z,23.30
2018-09-18T17:57:41.068Z,23.20
2018-09-18T18:00:32.735Z,22.90
2018-09-18T18:03:05.501Z,22.90
2018-09-18T18:05:35.097Z,22.70
2018-09-18T18:08:04.183Z,22.60
2018-09-18T18:10:33.428Z,22.50
2018-09-18T18:13:02.589Z,22.40
2018-09-18T18:15:31.732Z,22.30
2018-09-18T18:18:00.904Z,22.10
2018-09-18T18:20:31.448Z,22.00
2018-09-18T18:23:01.453Z,21.80
2018-09-18T18:25:34.192Z,21.70
2018-09-18T18:28:03.385Z,21.60
2018-09-18T18:30:32.742Z,21.50
2018-09-18T18:33:01.912Z,21.50
2018-09-18T18:35:32.089Z,21.40
2018-09-18T18:38:06.205Z,21.30
2018-09-18T18:40:35.348Z,21.30
2018-09-18T18:43:04.555Z,21.20
2018-09-18T18:45:39.478Z,21.10
2018-09-18T18:48:08.799Z,21.00
2018-09-18T18:50:45.672Z,21.00
2018-09-18T18:56:42.292Z,20.90
2018-09-18T18:59:17.558Z,20.80
2018-09-18T19:01:59.591Z,20.80
2018-09-18T19:04:29.194Z,20.70
2018-09-18T19:07:19.640Z,20.60
2018-09-18T19:09:49.171Z,20.50
2018-09-18T19:12:18.699Z,20.50
2018-09-18T19:14:49.800Z,20.50
2018-09-18T19:17:20.577Z,20.50
2018-09-18T19:19:52.678Z,20.40
2018-09-18T19:22:22.174Z,20.40
2018-09-18T19:24:51.580Z,20.30
2018-09-18T19:27:21.222Z,20.30
2018-09-18T19:29:51.638Z,20.20
2018-09-18T19:32:21.363Z,20.20
2018-09-18T19:34:50.671Z,20.20
2018-09-18T19:37:20.301Z,20.10
2018-09-18T19:39:51.271Z,20.10
2018-09-18T19:42:27.430Z,20.10
2018-09-18T19:44:57.041Z,20.00
2018-09-18T19:47:26.265Z,20.00
2018-09-18T19:49:55.451Z,19.90
2018-09-18T19:52:25.650Z,19.90
2018-09-18T19:55:01.279Z,19.90
2018-09-18T19:57:33.623Z,19.80
2018-09-18T20:00:03.039Z,19.80
2018-09-18T20:02:33.013Z,19.70
2018-09-18T20:05:02.302Z,19.70
2018-09-18T20:07:31.668Z,19.70
2018-09-18T20:10:01.488Z,19.60
2018-09-18T20:12:31.065Z,19.60
2018-09-18T20:15:01.340Z,19.50
2018-09-18T20:17:30.629Z,19.50
2018-09-18T20:19:59.996Z,19.40
2018-09-18T20:22:30.918Z,19.40
2018-09-18T20:25:01.538Z,19.40
2018-09-18T20:27:31.317Z,19.40
2018-09-18T20:30:02.020Z,19.30
2018-09-18T20:32:31.510Z,19.30
2018-09-18T20:35:00.939Z,19.20
2018-09-18T20:37:30.708Z,19.20
2018-09-18T20:40:00.064Z,19.10
2018-09-18T20:42:29.288Z,19.10
2018-09-18T20:44:59.209Z,19.10
2018-09-18T20:47:31.279Z,19.10
2018-09-18T20:50:02.388Z,19.00
2018-09-18T20:52:32.264Z,18.90
2018-09-18T20:55:01.511Z,19.00
2018-09-18T20:57:30.652Z,18.90
2018-09-18T20:59:59.916Z,18.90
2018-09-18T21:02:36.136Z,18.80
2018-09-18T21:05:08.792Z,18.80
2018-09-18T21:07:38.260Z,18.80
2018-09-18T21:10:08.144Z,18.80
2018-09-18T21:12:37.339Z,18.80
2018-09-18T21:15:07.273Z,18.70
2018-09-18T21:17:42.387Z,18.70
2018-09-18T21:20:13.003Z,18.60
2018-09-18T21:22:47.591Z,18.60
2018-09-18T21:25:20.673Z,18.60
2018-09-18T21:27:49.745Z,18.50
2018-09-18T21:30:18.917Z,18.50
2018-09-18T21:32:48.137Z,18.40
2018-09-18T21:35:17.640Z,18.40
2018-09-18T21:37:47.239Z,18.40
2018-09-18T21:40:16.468Z,18.30
2018-09-18T21:42:45.722Z,18.30
2018-09-18T21:45:14.877Z,18.30
2018-09-18T21:47:44.801Z,18.30
2018-09-18T21:50:14.070Z,18.30
2018-09-18T21:52:46.642Z,18.20
2018-09-18T21:55:17.476Z,18.20
2018-09-18T21:57:52.875Z,18.20
2018-09-18T22:00:32.062Z,18.20
2018-09-18T22:03:04.197Z,18.20
2018-09-18T22:05:53.239Z,18.10
2018-09-18T22:08:48.857Z,18.10
2018-09-18T22:12:00.981Z,18.10
2018-09-18T22:14:30.246Z,18.10
2018-09-18T22:17:00.042Z,18.00
2018-09-18T22:19:29.751Z,18.00
2018-09-18T22:21:59.099Z,17.90
2018-09-18T22:24:28.353Z,17.90
2018-09-18T22:26:57.542Z,17.90
2018-09-18T22:29:27.753Z,17.90
2018-09-18T22:31:57.614Z,17.80
2018-09-18T22:34:27.015Z,17.80
2018-09-18T22:36:57.110Z,17.80
2018-09-18T22:39:27.519Z,17.80
2018-09-18T22:41:57.905Z,17.70
2018-09-18T22:44:27.247Z,17.70
2018-09-18T22:46:58.106Z,17.70
2018-09-18T22:49:27.708Z,17.60
2018-09-18T22:51:57.173Z,17.60
2018-09-18T22:54:26.677Z,17.60
2018-09-18T22:56:56.023Z,17.60
2018-09-18T22:59:25.489Z,17.50
2018-09-18T23:01:54.789Z,17.40
2018-09-18T23:04:24.071Z,17.40
2018-09-18T23:06:53.292Z,17.40
2018-09-18T23:09:22.519Z,17.40
2018-09-18T23:11:51.645Z,17.40
2018-09-18T23:14:20.803Z,17.50
2018-09-18T23:16:49.932Z,17.50
2018-09-18T23:19:19.331Z,17.50
2018-09-18T23:21:48.457Z,17.60
2018-09-18T23:24:17.637Z,17.60
2018-09-18T23:26:46.842Z,17.60
2018-09-18T23:29:15.992Z,17.70
2018-09-18T23:31:45.191Z,17.70
2018-09-18T23:34:14.480Z,17.70
2018-09-18T23:36:43.523Z,17.70
2018-09-18T23:39:12.644Z,17.70
2018-09-18T23:41:41.859Z,17.70
2018-09-18T23:44:10.920Z,17.70
2018-09-18T23:46:40.043Z,17.70
2018-09-18T23:49:09.258Z,17.70
2018-09-18T23:51:38.745Z,17.60
2018-09-18T23:54:08.101Z,17.60
2018-09-18T23:56:37.353Z,17.60
2018-09-18T23:59:06.799Z,17.60
